Time;durP1;ratioP1;P1;durP2;ratioP2;P2;SDS_P1;SDS_P2;PMS_P1;PMS_P2;Temp;Humidity;BMP_temperature;BMP_pressure;BME280_temperature;BME280_humidity;BME280_pressure;Samples;Min_cycle;Max_cycle;Signal;HPM_P1;HPM_P2
2022/02/05 00:02:12;;;;;;;0.60;0.60;;;4.50;99.90;;;;;;7389045;19;20300;-79
2022/02/05 00:04:38;;;;;;;0.50;0.50;;;4.40;99.90;;;;;;7286176;19;2005572;-79
2022/02/05 00:07:06;;;;;;;0.53;0.53;;;4.30;99.90;;;;;;7389057;19;20655;-79
2022/02/05 00:12:26;;;;;;;0.55;0.55;;;4.20;99.90;;;;;;7387712;19;20293;-80
2022/02/05 00:40:47;;;;;;;0.80;0.55;;;3.70;99.90;;;;;;7290939;19;2004401;-79
2022/02/05 00:42:47;;;;;;;0.40;0.40;;;3.70;99.90;;;;;;7392470;19;20394;-80
2022/02/05 00:45:13;;;;;;;0.40;0.40;;;3.70;99.90;;;;;;7393322;19;20328;-81
2022/02/05 00:47:42;;;;;;;0.40;0.40;;;3.70;99.90;;;;;;7393289;19;20344;-79
2022/02/05 00:50:14;;;;;;;0.60;0.60;;;3.60;99.90;;;;;;7395345;19;20320;-80
2022/02/05 00:52:56;;;;;;;0.50;0.50;;;3.60;99.90;;;;;;7372910;19;21195;-80
2022/02/05 00:55:29;;;;;;;0.50;0.50;;;3.60;99.90;;;;;;7368003;19;20372;-79
2022/02/05 00:58:02;;;;;;;0.50;0.50;;;3.50;99.90;;;;;;7394864;19;20309;-80
2022/02/05 01:00:28;;;;;;;0.63;0.63;;;3.40;99.90;;;;;;7399691;19;20304;-81
2022/02/05 01:02:53;;;;;;;0.70;0.70;;;3.40;99.90;;;;;;7395513;19;20309;-80
2022/02/05 01:05:20;;;;;;;0.70;0.70;;;3.40;99.90;;;;;;7391552;19;20293;-80
2022/02/05 01:07:46;;;;;;;0.70;0.70;;;3.40;99.90;;;;;;7392334;19;20316;-79
2022/02/05 01:10:11;;;;;;;0.63;0.63;;;3.50;99.90;;;;;;7391986;19;20831;-80
2022/02/05 01:12:41;;;;;;;0.55;0.55;;;3.40;99.90;;;;;;7392273;19;20383;-79
2022/02/05 01:15:08;;;;;;;0.50;0.50;;;3.40;99.90;;;;;;7389763;19;20643;-80
2022/02/05 01:17:45;;;;;;;0.50;0.50;;;3.40;99.90;;;;;;7393345;19;20355;-80
2022/02/05 01:22:40;;;;;;;0.63;0.63;;;3.40;99.90;;;;;;7393610;19;20364;-80
2022/02/05 01:25:06;;;;;;;0.60;0.60;;;3.40;99.90;;;;;;7389848;19;20683;-81
2022/02/05 01:27:41;;;;;;;0.70;0.70;;;3.40;99.90;;;;;;7376037;19;20313;-80
2022/02/05 01:32:35;;;;;;;1.60;0.90;;;3.40;99.90;;;;;;7390918;19;20328;-80
2022/02/05 01:35:15;;;;;;;0.90;0.90;;;3.40;99.90;;;;;;7388910;19;20703;-80
2022/02/05 01:54:38;;;;;;;0.90;0.90;;;3.30;99.90;;;;;;7392351;19;20312;-79
2022/02/05 01:57:41;;;;;;;0.90;0.90;;;3.30;99.90;;;;;;7389967;19;20304;-79
2022/02/05 02:05:06;;;;;;;0.98;0.98;;;3.20;99.90;;;;;;7388126;19;20691;-80
2022/02/05 02:15:39;;;;;;;2.15;1.17;;;3.20;99.90;;;;;;7352904;19;20320;-79
2022/02/05 02:18:20;;;;;;;1.35;1.25;;;3.30;99.90;;;;;;7387217;19;20958;-79
2022/02/05 02:21:02;;;;;;;1.30;1.20;;;3.30;99.90;;;;;;7389299;19;20860;-80
2022/02/05 02:23:52;;;;;;;1.15;1.15;;;3.50;99.90;;;;;;7389696;19;20339;-79
2022/02/05 02:31:18;;;;;;;1.20;1.10;;;3.40;99.90;;;;;;7345621;19;20350;-80
2022/02/05 02:33:54;;;;;;;1.33;1.20;;;3.40;99.90;;;;;;7248447;19;2004412;-80
2022/02/05 02:38:56;;;;;;;0.90;0.90;;;3.50;99.90;;;;;;7384205;19;20317;-80
2022/02/05 02:41:30;;;;;;;2.05;1.25;;;3.50;99.90;;;;;;7393476;19;20337;-80
2022/02/05 02:43:56;;;;;;;2.10;1.20;;;3.60;99.90;;;;;;7396562;19;20348;-80
2022/02/05 02:46:21;;;;;;;1.90;1.30;;;3.50;99.90;;;;;;7394048;19;20663;-80
2022/02/05 02:48:48;;;;;;;1.83;1.30;;;3.60;99.90;;;;;;7390571;19;20337;-79
2022/02/05 02:57:14;;;;;;;1.30;1.20;;;3.60;99.90;;;;;;7390039;19;20321;-81
2022/02/05 02:59:49;;;;;;;1.55;1.38;;;3.60;99.90;;;;;;7287276;19;2004422;-79
2022/02/05 03:02:18;;;;;;;1.65;1.25;;;3.70;99.90;;;;;;7288291;19;2006513;-80
2022/02/05 03:04:49;;;;;;;1.80;1.42;;;3.70;99.90;;;;;;7389952;19;20329;-77
2022/02/05 03:07:26;;;;;;;1.52;1.42;;;3.70;99.90;;;;;;7285146;19;2004418;-80
2022/02/05 03:09:53;;;;;;;2.08;1.40;;;3.70;99.90;;;;;;7387462;19;20629;-80
2022/02/05 03:12:19;;;;;;;2.28;1.60;;;3.70;99.90;;;;;;7386733;19;20622;-80
2022/02/05 03:14:45;;;;;;;1.95;1.60;;;3.70;99.90;;;;;;7387440;19;20416;-80
2022/02/05 03:17:16;;;;;;;3.25;1.60;;;3.70;99.90;;;;;;7388903;19;20308;-80
2022/02/05 03:19:43;;;;;;;2.40;1.50;;;3.70;99.90;;;;;;7389108;19;20658;-80
2022/02/05 03:22:09;;;;;;;3.80;2.05;;;3.70;99.90;;;;;;7390592;19;20293;-81
2022/02/05 03:24:35;;;;;;;5.05;1.58;;;3.70;99.90;;;;;;7392740;19;20313;-81
2022/02/05 03:27:01;;;;;;;3.90;1.70;;;3.70;99.90;;;;;;7392267;19;20709;-81
2022/02/05 03:29:26;;;;;;;1.60;1.50;;;3.70;99.90;;;;;;7390849;19;20317;-81
2022/02/05 03:31:52;;;;;;;1.90;1.25;;;3.70;99.90;;;;;;7362351;19;20325;-80
2022/02/05 03:34:18;;;;;;;1.60;1.30;;;3.70;99.90;;;;;;7392845;19;20651;-79
2022/02/05 03:36:44;;;;;;;3.40;1.88;;;3.80;99.90;;;;;;7390795;19;20301;-81
2022/02/05 03:39:09;;;;;;;3.63;1.67;;;3.60;99.90;;;;;;7388014;19;20320;-81
2022/02/05 03:41:35;;;;;;;2.30;1.50;;;3.60;99.90;;;;;;7392557;19;20309;-80
2022/02/05 03:44:01;;;;;;;2.20;1.55;;;3.60;99.90;;;;;;7328901;19;20402;-80
2022/02/05 03:46:27;;;;;;;1.95;1.23;;;3.70;99.90;;;;;;7389636;19;20320;-80
2022/02/05 03:48:53;;;;;;;2.33;1.43;;;3.60;99.90;;;;;;7391068;19;20304;-81
2022/02/05 03:51:19;;;;;;;2.30;1.38;;;3.60;99.90;;;;;;7390083;19;20312;-80
2022/02/05 03:53:48;;;;;;;1.60;1.50;;;3.70;99.90;;;;;;7388481;19;22407;-80
2022/02/05 03:56:14;;;;;;;2.60;1.70;;;3.70;99.90;;;;;;7389215;19;20297;-80
2022/02/05 03:58:39;;;;;;;1.67;1.33;;;3.60;99.90;;;;;;7360501;19;20312;-80
2022/02/05 04:01:05;;;;;;;1.40;1.23;;;3.60;99.90;;;;;;7389202;19;20312;-80
2022/02/05 04:03:31;;;;;;;2.80;1.37;;;3.60;99.90;;;;;;7391382;19;20313;-80
2022/02/05 04:05:58;;;;;;;1.80;1.40;;;3.70;99.90;;;;;;7395561;19;20350;-80
2022/02/05 04:08:23;;;;;;;1.25;1.20;;;3.60;99.90;;;;;;7395308;19;20348;-81
2022/02/05 04:11:00;;;;;;;1.67;1.30;;;3.60;99.90;;;;;;7395666;19;20292;-80
2022/02/05 04:16:22;;;;;;;5.07;1.80;;;3.80;99.90;;;;;;7292635;19;2006221;-80
2022/02/05 04:18:57;;;;;;;2.17;1.50;;;3.60;99.90;;;;;;7291566;19;2004363;-81
2022/02/05 04:21:23;;;;;;;2.50;1.40;;;3.70;99.90;;;;;;7395172;19;20300;-80
2022/02/05 04:23:50;;;;;;;3.22;1.70;;;3.60;99.90;;;;;;7394823;19;20316;-80
2022/02/05 04:26:22;;;;;;;2.60;1.50;;;3.60;99.90;;;;;;7388824;19;20372;-80
2022/02/05 04:28:48;;;;;;;2.80;1.67;;;3.60;99.90;;;;;;7398893;19;20337;-81
2022/02/05 04:31:14;;;;;;;2.00;1.63;;;3.70;99.90;;;;;;7399656;19;20319;-80
2022/02/05 04:33:39;;;;;;;3.38;1.73;;;3.80;99.90;;;;;;7397314;19;20350;-80
2022/02/05 04:36:06;;;;;;;1.67;1.53;;;3.70;99.90;;;;;;7396433;19;20311;-80
2022/02/05 04:38:33;;;;;;;3.33;1.65;;;3.60;99.90;;;;;;7378997;19;20310;-81
2022/02/05 04:41:14;;;;;;;2.10;1.50;;;3.60;99.90;;;;;;7393950;19;21106;-80
2022/02/05 04:44:01;;;;;;;3.38;1.80;;;3.60;99.90;;;;;;7394715;19;20908;-81
2022/02/05 04:52:05;;;;;;;1.60;1.50;;;3.50;99.90;;;;;;7185290;19;2004429;-80
2022/02/05 05:02:46;;;;;;;3.10;1.50;;;3.50;99.90;;;;;;7294212;19;2004373;-80
2022/02/05 05:13:33;;;;;;;2.00;1.40;;;3.50;99.90;;;;;;7291055;19;2006656;-79
2022/02/05 05:21:56;;;;;;;1.40;1.30;;;3.40;99.90;;;;;;7394267;19;20307;-80
2022/02/05 05:24:22;;;;;;;1.58;1.48;;;3.40;99.90;;;;;;7396890;19;20318;-80
2022/02/05 05:26:47;;;;;;;2.63;1.67;;;3.40;99.90;;;;;;7393275;19;20300;-79
2022/02/05 05:29:13;;;;;;;3.28;1.52;;;3.50;99.90;;;;;;7396179;19;20309;-79
2022/02/05 05:31:39;;;;;;;2.00;1.60;;;3.40;99.90;;;;;;7396931;19;20297;-81
2022/02/05 05:34:05;;;;;;;1.67;1.55;;;3.30;99.90;;;;;;7396480;19;20320;-81
2022/02/05 05:36:30;;;;;;;3.13;1.65;;;3.30;99.90;;;;;;7395761;19;20632;-80
2022/02/05 05:39:02;;;;;;;1.40;1.30;;;3.30;99.90;;;;;;7395905;19;20316;-79
2022/02/05 05:41:29;;;;;;;1.38;1.27;;;3.30;99.90;;;;;;7395623;19;20349;-80
2022/02/05 05:46:40;;;;;;;2.40;1.55;;;3.20;99.90;;;;;;7392712;19;20360;-80
2022/02/05 05:49:18;;;;;;;1.35;1.25;;;3.30;99.90;;;;;;7392180;19;20301;-80
2022/02/05 05:51:45;;;;;;;1.70;1.50;;;3.30;99.90;;;;;;7389297;19;20332;-81
2022/02/05 05:54:11;;;;;;;1.55;1.42;;;3.50;99.90;;;;;;7392821;19;20293;-80
2022/02/05 05:56:37;;;;;;;2.05;1.55;;;3.30;99.90;;;;;;7393898;19;20879;-80
2022/02/05 05:59:04;;;;;;;1.52;1.42;;;3.30;99.90;;;;;;7396176;19;20320;-78
2022/02/05 06:01:30;;;;;;;1.48;1.38;;;3.60;99.90;;;;;;7378496;19;20370;-79
2022/02/05 06:03:56;;;;;;;3.80;1.80;;;3.40;99.90;;;;;;7398278;19;20336;-79
2022/02/05 06:06:22;;;;;;;4.28;1.92;;;3.40;99.90;;;;;;7392436;19;20300;-78
2022/02/05 06:08:47;;;;;;;2.37;1.73;;;3.50;99.90;;;;;;7392813;19;20324;-78
2022/02/05 06:11:13;;;;;;;2.85;1.80;;;3.50;99.90;;;;;;7398048;19;20881;-79
2022/02/05 06:13:42;;;;;;;2.15;1.65;;;3.60;99.90;;;;;;7397416;19;20364;-80
2022/02/05 06:16:12;;;;;;;5.60;1.85;;;3.40;99.90;;;;;;7396050;19;20340;-79
2022/02/05 06:18:38;;;;;;;3.05;1.83;;;3.40;99.90;;;;;;7388402;19;20384;-78
2022/02/05 06:21:04;;;;;;;1.83;1.70;;;3.50;99.90;;;;;;7398223;19;20312;-78
2022/02/05 06:23:30;;;;;;;3.33;1.83;;;3.60;99.90;;;;;;7391995;19;20385;-78
2022/02/05 06:25:55;;;;;;;2.37;1.80;;;3.50;99.90;;;;;;7388253;19;20412;-79
2022/02/05 06:28:21;;;;;;;4.70;2.13;;;3.50;99.90;;;;;;7386422;19;20329;-78
2022/02/05 06:30:47;;;;;;;2.53;1.63;;;3.50;99.90;;;;;;7399121;19;20796;-79
2022/02/05 06:33:13;;;;;;;3.33;2.15;;;3.50;99.90;;;;;;7392632;19;21218;-78
2022/02/05 06:35:39;;;;;;;2.20;2.00;;;3.60;99.90;;;;;;7373672;19;20312;-79
2022/02/05 06:38:05;;;;;;;2.27;1.87;;;3.50;99.90;;;;;;7398542;19;20317;-77
2022/02/05 06:40:32;;;;;;;2.23;1.70;;;3.80;99.90;;;;;;7405276;19;20710;-78
2022/02/05 06:42:57;;;;;;;2.97;2.22;;;3.60;99.90;;;;;;7396081;19;20358;-78
2022/02/05 06:45:23;;;;;;;3.00;1.80;;;3.60;99.90;;;;;;7398509;19;20320;-79
2022/02/05 06:47:49;;;;;;;2.67;2.10;;;3.60;99.90;;;;;;7406115;19;20312;-78
2022/02/05 06:50:14;;;;;;;2.30;2.03;;;3.50;99.90;;;;;;7392422;19;20316;-79
2022/02/05 06:52:41;;;;;;;2.20;2.00;;;3.60;99.90;;;;;;7395850;19;20857;-78
2022/02/05 06:55:07;;;;;;;3.00;2.20;;;3.60;99.90;;;;;;7395345;19;20315;-79
2022/02/05 06:57:33;;;;;;;2.25;2.00;;;3.50;99.90;;;;;;7399570;19;20556;-78
2022/02/05 06:59:59;;;;;;;4.57;2.38;;;3.60;99.90;;;;;;7395536;19;20345;-78
2022/02/05 07:02:25;;;;;;;2.28;2.08;;;3.50;99.90;;;;;;7403169;19;20319;-78
2022/02/05 07:04:57;;;;;;;2.10;1.90;;;3.60;99.90;;;;;;7395903;19;20356;-79
2022/02/05 07:07:23;;;;;;;3.05;2.33;;;3.50;99.90;;;;;;7398955;19;20332;-79
2022/02/05 07:09:48;;;;;;;2.20;2.00;;;3.60;99.90;;;;;;7396445;19;20337;-78
2022/02/05 07:12:14;;;;;;;2.70;1.97;;;3.60;99.90;;;;;;7400049;19;20332;-79
2022/02/05 07:14:57;;;;;;;4.07;1.98;;;3.50;99.90;;;;;;7395798;19;20328;-78
2022/02/05 07:17:48;;;;;;;2.25;1.98;;;3.60;99.90;;;;;;7296972;19;2004401;-78
2022/02/05 07:20:26;;;;;;;4.22;2.20;;;3.60;99.90;;;;;;7396147;19;20638;-79
2022/02/05 07:23:24;;;;;;;2.58;2.08;;;3.70;99.90;;;;;;7390520;19;20342;-78
2022/02/05 07:31:14;;;;;;;2.00;1.90;;;3.60;99.90;;;;;;7395575;19;20396;-79
2022/02/05 07:33:40;;;;;;;4.05;2.33;;;3.70;99.90;;;;;;7401947;19;20341;-78
2022/02/05 07:36:05;;;;;;;3.78;2.08;;;3.60;99.90;;;;;;7396795;19;20329;-79
2022/02/05 07:38:31;;;;;;;2.27;1.90;;;3.50;99.90;;;;;;7397863;19;20309;-77
2022/02/05 07:40:57;;;;;;;2.28;2.08;;;3.70;99.90;;;;;;7396095;19;20332;-79
2022/02/05 07:43:27;;;;;;;2.97;1.83;;;3.60;99.90;;;;;;7402775;19;20759;-79
2022/02/05 07:45:54;;;;;;;3.30;2.20;;;3.60;99.90;;;;;;7400944;19;20345;-79
2022/02/05 07:48:19;;;;;;;2.20;2.00;;;3.60;99.90;;;;;;7383440;19;20317;-78
2022/02/05 07:50:45;;;;;;;2.72;2.00;;;3.60;99.90;;;;;;7397873;19;20297;-79
2022/02/05 07:53:11;;;;;;;3.43;2.20;;;3.60;99.90;;;;;;7403605;19;20321;-79
2022/02/05 07:55:37;;;;;;;2.20;1.85;;;3.70;99.90;;;;;;7407802;19;20349;-79
2022/02/05 07:58:02;;;;;;;6.13;2.25;;;3.70;99.90;;;;;;7404040;19;20331;-78
2022/02/05 08:00:28;;;;;;;2.60;2.00;;;3.70;99.90;;;;;;7390869;19;20312;-79
2022/02/05 08:02:57;;;;;;;2.00;1.80;;;3.70;99.90;;;;;;7404556;19;20348;-79
2022/02/05 08:05:24;;;;;;;2.40;1.98;;;3.80;99.90;;;;;;7404478;19;20344;-79
2022/02/05 08:07:50;;;;;;;2.67;2.20;;;3.80;99.90;;;;;;7393408;19;20333;-80
2022/02/05 08:10:17;;;;;;;7.18;2.08;;;3.80;99.90;;;;;;7396404;19;20784;-78
2022/02/05 08:12:50;;;;;;;2.28;2.00;;;3.90;99.90;;;;;;7400257;19;20348;-79
2022/02/05 08:15:22;;;;;;;2.87;2.37;;;3.80;99.90;;;;;;7401196;19;20312;-79
2022/02/05 08:17:48;;;;;;;2.40;2.20;;;3.80;99.90;;;;;;7405159;19;20340;-79
2022/02/05 08:20:14;;;;;;;6.55;2.90;;;3.80;99.90;;;;;;7403485;19;20329;-79
2022/02/05 08:22:40;;;;;;;2.40;2.20;;;3.70;99.90;;;;;;7406743;19;20301;-78
2022/02/05 08:25:06;;;;;;;4.65;2.50;;;3.80;99.90;;;;;;7408732;19;20373;-79
2022/02/05 08:27:31;;;;;;;3.13;1.88;;;3.70;99.90;;;;;;7406127;19;20316;-78
2022/02/05 08:29:58;;;;;;;2.00;1.60;;;3.80;99.90;;;;;;7391395;19;20312;-78
2022/02/05 08:32:26;;;;;;;1.80;1.70;;;3.80;99.90;;;;;;7397366;19;20356;-79
2022/02/05 08:34:51;;;;;;;1.50;1.40;;;3.70;99.90;;;;;;7398758;19;20288;-78
2022/02/05 08:37:18;;;;;;;3.00;2.00;;;3.70;99.90;;;;;;7398486;19;20333;-78
2022/02/05 08:39:43;;;;;;;1.65;1.55;;;3.70;99.90;;;;;;7400454;19;20348;-78
2022/02/05 08:42:09;;;;;;;2.92;2.00;;;3.70;99.90;;;;;;7398854;19;20368;-79
2022/02/05 08:44:36;;;;;;;2.33;1.63;;;3.70;99.90;;;;;;7402360;19;20325;-79
2022/02/05 08:47:02;;;;;;;1.70;1.60;;;3.70;99.90;;;;;;7404339;19;20305;-78
2022/02/05 08:49:29;;;;;;;3.05;1.55;;;3.70;99.90;;;;;;7390376;19;20332;-79
2022/02/05 08:52:00;;;;;;;1.33;1.23;;;3.70;99.90;;;;;;7405172;19;20425;-79
2022/02/05 08:54:31;;;;;;;2.40;1.40;;;3.70;99.90;;;;;;7408435;19;20413;-78
2022/02/05 08:57:04;;;;;;;1.90;1.65;;;3.70;99.90;;;;;;7299998;19;2005443;-79
2022/02/05 08:59:37;;;;;;;1.58;1.30;;;3.70;99.90;;;;;;7411206;19;20889;-79
2022/02/05 09:02:13;;;;;;;1.10;1.10;;;3.70;99.90;;;;;;7360766;19;20317;-79
2022/02/05 09:07:04;;;;;;;1.38;1.27;;;3.60;99.90;;;;;;7406650;19;20309;-79
2022/02/05 09:09:42;;;;;;;1.00;1.00;;;3.60;99.90;;;;;;7405266;19;20313;-79
2022/02/05 09:14:53;;;;;;;1.10;1.10;;;3.50;99.90;;;;;;7305658;19;2004348;-79
2022/02/05 09:17:19;;;;;;;2.60;1.10;;;3.50;99.90;;;;;;7409248;19;20425;-79
2022/02/05 09:19:46;;;;;;;1.63;1.52;;;3.50;99.90;;;;;;7406058;19;20370;-78
2022/02/05 09:22:12;;;;;;;1.55;1.45;;;3.50;99.90;;;;;;7412909;19;20341;-79
2022/02/05 09:24:38;;;;;;;1.50;1.40;;;3.60;99.90;;;;;;7411657;19;20348;-79
2022/02/05 09:27:07;;;;;;;1.87;1.57;;;3.60;99.90;;;;;;7416627;19;20332;-79
2022/02/05 09:30:15;;;;;;;1.77;1.60;;;3.50;99.90;;;;;;7406867;19;20348;-79
2022/02/05 09:36:26;;;;;;;1.88;1.70;;;3.20;99.90;;;;;;7409915;19;20337;-79
2022/02/05 09:38:54;;;;;;;1.77;1.67;;;3.10;99.90;;;;;;7421242;19;20348;-79
2022/02/05 09:41:20;;;;;;;4.78;2.20;;;3.00;99.90;;;;;;7413579;19;20385;-79
2022/02/05 09:43:47;;;;;;;2.53;2.20;;;3.10;99.90;;;;;;7418722;19;20341;-77
2022/02/05 09:46:15;;;;;;;1.93;1.80;;;3.10;99.90;;;;;;7421512;19;20340;-78
2022/02/05 09:48:43;;;;;;;2.95;2.15;;;3.20;99.90;;;;;;7416452;19;20349;-79
2022/02/05 09:51:15;;;;;;;2.50;2.08;;;3.20;99.90;;;;;;7409611;19;20529;-79
2022/02/05 09:53:45;;;;;;;2.78;2.58;;;3.50;99.90;;;;;;7397652;19;20824;-79
2022/02/05 09:56:11;;;;;;;5.05;3.78;;;3.40;99.90;;;;;;7414241;19;20320;-80
2022/02/05 09:58:38;;;;;;;2.20;2.00;;;3.40;99.90;;;;;;7385815;19;20343;-79
2022/02/05 10:01:25;;;;;;;2.08;1.98;;;3.60;99.90;;;;;;7385784;19;20332;-79
2022/02/05 10:04:01;;;;;;;2.43;2.23;;;3.80;99.90;;;;;;7214295;19;2004454;-79
2022/02/05 10:06:39;;;;;;;2.03;1.92;;;3.90;99.90;;;;;;7375153;19;20358;-78
2022/02/05 10:09:10;;;;;;;2.45;2.20;;;4.10;99.90;;;;;;7398096;19;20345;-79
2022/02/05 10:11:47;;;;;;;2.95;2.33;;;4.10;99.90;;;;;;7414672;19;20292;-79
2022/02/05 10:14:13;;;;;;;2.80;2.60;;;4.20;99.90;;;;;;7310263;19;2005509;-79
2022/02/05 10:16:39;;;;;;;2.47;1.90;;;4.40;99.90;;;;;;7412189;19;20365;-79
2022/02/05 10:19:04;;;;;;;3.97;2.42;;;4.30;99.90;;;;;;7408600;19;20376;-79
2022/02/05 10:21:30;;;;;;;1.93;1.77;;;4.30;99.90;;;;;;7397929;19;20368;-78
2022/02/05 10:24:07;;;;;;;2.25;1.67;;;4.40;99.90;;;;;;7402152;19;20337;-78
2022/02/05 10:26:46;;;;;;;3.10;2.67;;;4.40;99.90;;;;;;7402058;19;20398;-78
2022/02/05 10:29:15;;;;;;;6.28;3.38;;;4.50;99.90;;;;;;7403681;19;20321;-79
2022/02/05 10:32:15;;;;;;;2.63;2.00;;;4.60;99.90;;;;;;7411419;19;20329;-79
2022/02/05 10:35:37;;;;;;;3.03;2.60;;;4.90;99.90;;;;;;7293498;19;2004423;-78
2022/02/05 10:37:44;;;;;;;3.60;1.90;;;4.90;99.90;;;;;;7289261;19;2008444;-78
2022/02/05 10:40:13;;;;;;;3.00;2.17;;;4.90;99.90;;;;;;7388434;19;20330;-78
2022/02/05 10:43:03;;;;;;;2.83;2.30;;;4.80;99.90;;;;;;7388989;19;20780;-78
2022/02/05 10:45:51;;;;;;;2.38;2.03;;;4.80;99.90;;;;;;7396544;19;20316;-79
2022/02/05 10:48:18;;;;;;;4.55;1.98;;;5.00;99.90;;;;;;7294339;19;2004355;-78
2022/02/05 10:50:45;;;;;;;4.83;2.70;;;4.90;99.90;;;;;;7390177;19;20381;-78
2022/02/05 10:53:22;;;;;;;5.22;2.28;;;4.90;99.90;;;;;;7397074;19;20344;-79
2022/02/05 10:58:41;;;;;;;2.88;2.10;;;5.00;99.90;;;;;;7390960;19;20982;-79
2022/02/05 11:07:02;;;;;;;3.75;2.22;;;4.90;99.90;;;;;;7301116;19;2004341;-78
2022/02/05 11:09:27;;;;;;;2.97;2.25;;;4.80;99.90;;;;;;7414791;19;20340;-79
2022/02/05 11:20:17;;;;;;;3.83;2.83;;;4.80;99.90;;;;;;7389182;19;20327;-78
2022/02/05 11:22:48;;;;;;;5.63;2.30;;;4.50;99.90;;;;;;7391408;19;20313;-77
2022/02/05 11:25:15;;;;;;;3.42;2.17;;;4.20;99.90;;;;;;7372272;19;20843;-78
2022/02/05 11:28:10;;;;;;;2.88;2.50;;;3.90;99.90;;;;;;7366038;19;20387;-79
2022/02/05 11:30:46;;;;;;;2.60;2.40;;;3.70;99.90;;;;;;7397516;19;20403;-79
2022/02/05 11:33:22;;;;;;;2.25;2.08;;;3.90;99.90;;;;;;7395954;19;20316;-78
2022/02/05 11:38:42;;;;;;;3.65;2.20;;;3.90;99.90;;;;;;7396426;19;20373;-78
2022/02/05 11:41:28;;;;;;;3.55;2.50;;;3.80;99.90;;;;;;7395394;19;20353;-78
2022/02/05 11:44:15;;;;;;;6.28;2.47;;;3.70;99.90;;;;;;7296920;19;2004440;-78
2022/02/05 11:46:41;;;;;;;3.25;2.95;;;3.70;99.90;;;;;;7296080;19;2005842;-78
2022/02/05 11:49:07;;;;;;;4.18;2.60;;;3.50;99.90;;;;;;7376463;19;20323;-78
2022/02/05 11:51:45;;;;;;;2.75;2.05;;;3.40;99.90;;;;;;7397788;19;20336;-77
2022/02/05 11:54:16;;;;;;;3.30;2.47;;;3.40;99.90;;;;;;7396546;19;20328;-78
2022/02/05 11:57:05;;;;;;;5.82;3.72;;;3.30;99.90;;;;;;7395477;19;20305;-79
2022/02/05 11:59:56;;;;;;;8.40;3.80;;;3.30;99.90;;;;;;7391963;19;20340;-78
2022/02/05 12:02:22;;;;;;;4.65;3.40;;;3.40;99.90;;;;;;7289999;19;2007062;-77
2022/02/05 12:05:13;;;;;;;5.38;3.83;;;3.50;99.90;;;;;;7391895;19;20331;-78
2022/02/05 12:08:11;;;;;;;4.93;2.67;;;3.60;99.90;;;;;;7287254;19;2006138;-79
2022/02/05 12:10:50;;;;;;;5.57;3.50;;;4.10;99.90;;;;;;7288410;19;2005657;-78
2022/02/05 12:13:24;;;;;;;4.60;2.57;;;4.10;99.90;;;;;;7394214;19;20339;-78
2022/02/05 12:15:59;;;;;;;5.22;2.97;;;4.10;99.90;;;;;;7395036;19;20374;-79
2022/02/05 12:18:26;;;;;;;4.28;2.75;;;4.20;99.90;;;;;;7366373;19;20344;-78
2022/02/05 12:21:08;;;;;;;2.55;2.30;;;4.20;99.90;;;;;;7388862;19;20358;-78
2022/02/05 12:26:31;;;;;;;3.65;2.35;;;4.20;99.90;;;;;;7399591;19;20328;-78
2022/02/05 12:29:02;;;;;;;2.45;2.25;;;4.20;99.90;;;;;;7399963;19;20328;-78
2022/02/05 12:31:34;;;;;;;4.30;2.30;;;4.20;99.90;;;;;;7403049;19;20343;-79
2022/02/05 12:34:01;;;;;;;3.53;2.53;;;4.30;99.90;;;;;;7349253;19;20407;-78
2022/02/05 12:37:08;;;;;;;3.38;2.40;;;4.40;99.90;;;;;;7401841;19;20330;-78
2022/02/05 12:39:38;;;;;;;4.32;2.28;;;4.50;99.90;;;;;;7193063;19;2004575;-79
2022/02/05 12:42:14;;;;;;;3.13;1.80;;;4.60;99.90;;;;;;7388594;19;20352;-77
2022/02/05 12:44:49;;;;;;;3.67;2.30;;;4.60;99.90;;;;;;7398963;19;20339;-80
2022/02/05 12:47:24;;;;;;;1.90;1.63;;;4.80;99.90;;;;;;7397941;19;20336;-79
2022/02/05 12:53:03;;;;;;;2.17;1.98;;;4.80;99.90;;;;;;7396527;19;20323;-79
2022/02/05 12:55:34;;;;;;;3.93;2.00;;;4.80;99.90;;;;;;7400828;19;20644;-79
2022/02/05 12:58:28;;;;;;;2.95;2.13;;;4.80;99.90;;;;;;7405320;19;20300;-79
2022/02/05 13:01:05;;;;;;;2.10;1.90;;;4.90;99.90;;;;;;7379639;19;20340;-79
2022/02/05 13:04:19;;;;;;;3.22;2.00;;;4.90;99.90;;;;;;7401771;19;20895;-80
2022/02/05 13:07:08;;;;;;;5.65;2.17;;;4.90;99.90;;;;;;7278272;19;2004300;-79
2022/02/05 13:10:04;;;;;;;5.00;1.90;;;4.90;99.90;;;;;;7341072;19;20316;-79
2022/02/05 13:12:33;;;;;;;2.45;2.00;;;4.90;99.90;;;;;;7396494;19;20411;-78
2022/02/05 13:15:27;;;;;;;3.60;1.92;;;5.00;99.90;;;;;;7397674;19;20353;-80
2022/02/05 13:18:32;;;;;;;3.60;1.80;;;5.10;99.90;;;;;;7286267;19;2004795;-79
2022/02/05 13:26:55;;;;;;;2.72;1.83;;;5.30;99.90;;;;;;7298973;19;2006591;-78
2022/02/05 13:34:34;;;;;;;4.80;2.08;;;5.30;99.90;;;;;;7398471;19;20312;-78
2022/02/05 13:37:18;;;;;;;3.05;1.83;;;5.30;99.90;;;;;;7403250;19;20389;-79
2022/02/05 13:39:59;;;;;;;2.03;1.80;;;5.40;99.90;;;;;;7397375;19;20657;-79
2022/02/05 13:42:27;;;;;;;1.83;1.55;;;5.50;99.90;;;;;;7398031;19;20325;-79
2022/02/05 13:45:01;;;;;;;3.45;1.70;;;5.70;99.90;;;;;;7403248;19;20356;-79
2022/02/05 13:47:30;;;;;;;4.70;1.90;;;5.70;99.90;;;;;;7402302;19;20304;-79
2022/02/05 13:50:19;;;;;;;4.03;3.17;;;5.60;99.90;;;;;;7401326;19;20316;-79
2022/02/05 13:52:55;;;;;;;2.85;2.25;;;5.60;99.90;;;;;;7297638;19;2011540;-78
2022/02/05 13:55:27;;;;;;;4.68;3.45;;;5.50;99.90;;;;;;7399694;19;20317;-78
2022/02/05 13:57:57;;;;;;;2.72;1.80;;;5.40;99.90;;;;;;7400669;19;20416;-79
2022/02/05 14:00:23;;;;;;;3.10;2.17;;;5.40;99.90;;;;;;7397322;19;20312;-79
2022/02/05 14:02:58;;;;;;;3.85;2.00;;;5.40;99.90;;;;;;7396040;19;20357;-78
2022/02/05 14:05:24;;;;;;;1.70;1.60;;;5.30;99.90;;;;;;7395038;19;20354;-78
2022/02/05 14:07:50;;;;;;;4.63;3.97;;;5.30;99.90;;;;;;7398925;19;20368;-79
2022/02/05 14:10:17;;;;;;;4.10;2.38;;;5.20;99.90;;;;;;7397437;19;20337;-78
2022/02/05 14:12:53;;;;;;;3.00;1.90;;;5.20;99.90;;;;;;7399746;19;20357;-78
2022/02/05 14:15:19;;;;;;;2.90;1.98;;;5.20;99.90;;;;;;7395771;19;20333;-78
2022/02/05 14:17:48;;;;;;;2.60;1.73;;;5.20;99.90;;;;;;7399433;19;20358;-78
2022/02/05 14:20:15;;;;;;;2.10;1.73;;;5.20;99.90;;;;;;7395090;19;20316;-78
2022/02/05 14:22:45;;;;;;;4.55;1.80;;;5.40;99.90;;;;;;7373967;19;20329;-78
2022/02/05 14:25:22;;;;;;;4.40;2.60;;;5.40;99.90;;;;;;7394105;19;20332;-79
2022/02/05 14:28:17;;;;;;;4.35;1.77;;;5.40;99.90;;;;;;7275939;19;2004835;-79
2022/02/05 14:31:01;;;;;;;1.50;1.40;;;5.30;99.90;;;;;;7389857;19;20373;-79
2022/02/05 14:33:35;;;;;;;4.10;1.90;;;5.50;99.90;;;;;;7393154;19;20303;-80
2022/02/05 14:36:17;;;;;;;3.05;1.80;;;5.40;99.90;;;;;;7390666;19;20317;-79
2022/02/05 14:41:27;;;;;;;2.90;1.60;;;5.40;99.90;;;;;;7290366;19;2006974;-79
2022/02/05 14:43:53;;;;;;;1.83;1.50;;;5.30;99.90;;;;;;7393838;19;20320;-80
2022/02/05 14:46:19;;;;;;;2.10;1.88;;;5.40;99.90;;;;;;7390473;19;20862;-79
2022/02/05 14:48:45;;;;;;;2.22;1.70;;;5.30;99.90;;;;;;7390084;19;20320;-81
2022/02/05 14:51:11;;;;;;;3.70;1.80;;;5.30;99.90;;;;;;7395891;19;20316;-79
2022/02/05 14:53:37;;;;;;;2.78;1.90;;;5.30;99.90;;;;;;7393698;19;20910;-79
2022/02/05 14:56:03;;;;;;;1.85;1.50;;;5.20;99.90;;;;;;7394041;19;20345;-79
2022/02/05 14:58:28;;;;;;;3.72;1.40;;;5.30;99.90;;;;;;7392346;19;20353;-78
2022/02/05 15:00:54;;;;;;;1.60;1.30;;;5.30;99.90;;;;;;7392111;19;20293;-79
2022/02/05 15:03:20;;;;;;;1.63;1.52;;;5.30;99.90;;;;;;7396187;19;20995;-80
2022/02/05 15:05:47;;;;;;;1.50;1.40;;;5.20;99.90;;;;;;7393394;19;20334;-78
2022/02/05 15:08:14;;;;;;;2.85;1.83;;;5.30;99.90;;;;;;7377967;19;20320;-78
2022/02/05 15:10:43;;;;;;;1.58;1.48;;;5.20;99.90;;;;;;7391815;19;20325;-78
2022/02/05 15:13:11;;;;;;;1.80;1.40;;;5.20;99.90;;;;;;7395923;19;20330;-78
2022/02/05 15:15:38;;;;;;;1.83;1.60;;;5.30;99.90;;;;;;7390759;19;20371;-78
2022/02/05 15:18:15;;;;;;;1.70;1.50;;;5.20;99.90;;;;;;7391850;19;20312;-79
2022/02/05 15:20:41;;;;;;;3.05;1.90;;;5.20;99.90;;;;;;7390840;19;20317;-79
2022/02/05 15:23:07;;;;;;;2.13;1.65;;;5.20;99.90;;;;;;7388833;19;20320;-77
2022/02/05 15:25:33;;;;;;;1.65;1.55;;;5.30;99.90;;;;;;7391462;19;20312;-79
2022/02/05 15:27:59;;;;;;;2.85;2.08;;;5.20;99.90;;;;;;7391164;19;20278;-77
2022/02/05 15:30:30;;;;;;;2.28;1.90;;;5.20;99.90;;;;;;7389878;19;20320;-78
2022/02/05 15:32:55;;;;;;;2.20;1.77;;;5.20;99.90;;;;;;7389647;19;20668;-79
2022/02/05 15:35:21;;;;;;;2.10;1.73;;;5.20;99.90;;;;;;7388150;19;20340;-78
2022/02/05 15:37:47;;;;;;;4.57;1.77;;;5.10;99.90;;;;;;7389198;19;20369;-78
2022/02/05 15:40:22;;;;;;;4.27;2.30;;;5.10;99.90;;;;;;7388414;19;20330;-78
2022/02/05 15:45:32;;;;;;;1.67;1.40;;;5.00;99.90;;;;;;7285126;19;2009445;-77
2022/02/05 15:47:57;;;;;;;1.60;1.50;;;5.00;99.90;;;;;;7368711;19;20391;-77
2022/02/05 15:50:23;;;;;;;1.87;1.50;;;5.20;99.90;;;;;;7389748;19;20324;-77
2022/02/05 15:52:49;;;;;;;3.33;1.60;;;5.00;99.90;;;;;;7390640;19;20359;-77
2022/02/05 15:55:17;;;;;;;1.67;1.57;;;4.90;99.90;;;;;;7387982;19;20360;-78
2022/02/05 15:58:08;;;;;;;5.20;1.60;;;4.90;99.90;;;;;;7388280;19;20347;-80
2022/02/05 16:00:34;;;;;;;2.53;1.83;;;4.90;99.90;;;;;;7381920;19;20464;-80
2022/02/05 16:03:01;;;;;;;1.83;1.52;;;4.90;99.90;;;;;;7368461;19;20391;-80